Terminal Aerodrome Forecast
Issued by NWS Corpus Christi, TX

Home | Current Version | Previous Version | Text Only | Print | Product List | Glossary On
Versions: 1 2 3 4 5 6 7 8 9 10 11 12 13 14 15 16
559
FTUS44 KCRP 280520
TAFVCT
TAF
KVCT 280520Z 2806/2906 VRB06KT 6SM BR SCT040 BKN250
     FM281000 VRB03KT 5SM BR VCSH SCT020 BKN250
     FM281300 02005KT P6SM VCTS BKN025CB
     FM281700 04008KT P6SM VCTS SCT020CB BKN040 PROB30 2817/2823
      -TSRA BKN035CB
     FM282300 06008KT P6SM VCSH SCT040 BKN150=

USA.gov is the U.S. government's official web portal to all federal, state and local government web resources and services.